Terminal Aerodrome Forecast
Issued by NWS Shreveport, LA

Home | Current Version | Previous Version | Text Only | Print | Product List | Glossary On
Versions: 1 2 3 4 5 6 7 8 9 10 11 12 13
000
FTUS44 KSHV 311744
TAFTXK
TAF
KTXK 311744Z 3118/0118 06006KT P6SM FEW110
     FM010000 08004KT P6SM SCT120 SCT250
     FM010600 VRB03KT P6SM SKC
     FM011400 09010KT P6SM SCT110=

USA.gov is the U.S. government's official web portal to all federal, state and local government web resources and services.